sensor_id;sensor_type;location;lat;lon;timestamp;P1;durP1;ratioP1;P2;durP2;ratioP2
62990;SDS011;49084;48.204;16.202;2022-11-14T00:00:27;102.55;;;42.20;;
62990;SDS011;49084;48.204;16.202;2022-11-14T00:02:53;100.05;;;41.80;;
62990;SDS011;49084;48.204;16.202;2022-11-14T00:05:20;103.90;;;43.85;;
62990;SDS011;49084;48.204;16.202;2022-11-14T00:07:46;104.38;;;43.15;;
62990;SDS011;49084;48.204;16.202;2022-11-14T00:10:12;98.70;;;43.28;;
62990;SDS011;49084;48.204;16.202;2022-11-14T00:12:39;99.07;;;42.13;;
62990;SDS011;49084;48.204;16.202;2022-11-14T00:15:05;103.65;;;42.58;;
62990;SDS011;49084;48.204;16.202;2022-11-14T00:17:31;98.38;;;42.22;;
62990;SDS011;49084;48.204;16.202;2022-11-14T00:19:57;95.60;;;42.28;;
62990;SDS011;49084;48.204;16.202;2022-11-14T00:22:22;105.32;;;43.63;;
62990;SDS011;49084;48.204;16.202;2022-11-14T00:24:48;90.57;;;42.03;;
62990;SDS011;49084;48.204;16.202;2022-11-14T00:27:13;96.18;;;42.88;;
62990;SDS011;49084;48.204;16.202;2022-11-14T00:29:39;87.93;;;41.17;;
62990;SDS011;49084;48.204;16.202;2022-11-14T00:32:05;90.00;;;40.88;;
62990;SDS011;49084;48.204;16.202;2022-11-14T00:34:31;95.10;;;43.35;;
62990;SDS011;49084;48.204;16.202;2022-11-14T00:36:57;94.70;;;40.90;;
62990;SDS011;49084;48.204;16.202;2022-11-14T00:39:23;89.22;;;38.40;;
62990;SDS011;49084;48.204;16.202;2022-11-14T00:41:49;86.05;;;40.08;;
62990;SDS011;49084;48.204;16.202;2022-11-14T00:44:15;88.60;;;41.13;;
62990;SDS011;49084;48.204;16.202;2022-11-14T00:46:41;91.10;;;42.92;;
62990;SDS011;49084;48.204;16.202;2022-11-14T00:49:06;88.88;;;40.72;;
62990;SDS011;49084;48.204;16.202;2022-11-14T00:51:32;80.90;;;39.40;;
62990;SDS011;49084;48.204;16.202;2022-11-14T00:53:58;90.95;;;41.10;;
62990;SDS011;49084;48.204;16.202;2022-11-14T00:56:23;85.88;;;40.78;;
62990;SDS011;49084;48.204;16.202;2022-11-14T00:58:49;84.70;;;40.45;;
62990;SDS011;49084;48.204;16.202;2022-11-14T01:01:15;84.28;;;38.80;;
62990;SDS011;49084;48.204;16.202;2022-11-14T01:03:41;88.55;;;39.40;;
62990;SDS011;49084;48.204;16.202;2022-11-14T01:06:07;81.30;;;40.10;;
62990;SDS011;49084;48.204;16.202;2022-11-14T01:08:35;81.95;;;39.30;;
62990;SDS011;49084;48.204;16.202;2022-11-14T01:11:00;85.30;;;40.95;;
62990;SDS011;49084;48.204;16.202;2022-11-14T01:13:34;81.93;;;38.50;;
62990;SDS011;49084;48.204;16.202;2022-11-14T01:16:00;82.18;;;39.60;;
62990;SDS011;49084;48.204;16.202;2022-11-14T01:18:26;81.28;;;38.35;;
62990;SDS011;49084;48.204;16.202;2022-11-14T01:20:51;83.05;;;38.70;;
62990;SDS011;49084;48.204;16.202;2022-11-14T01:23:17;84.45;;;39.00;;
62990;SDS011;49084;48.204;16.202;2022-11-14T01:25:43;85.28;;;39.88;;
62990;SDS011;49084;48.204;16.202;2022-11-14T01:28:10;80.20;;;40.65;;
62990;SDS011;49084;48.204;16.202;2022-11-14T01:30:37;81.45;;;40.05;;
62990;SDS011;49084;48.204;16.202;2022-11-14T01:33:04;85.60;;;40.63;;
62990;SDS011;49084;48.204;16.202;2022-11-14T01:35:31;82.68;;;39.42;;
62990;SDS011;49084;48.204;16.202;2022-11-14T01:37:58;86.45;;;39.95;;
62990;SDS011;49084;48.204;16.202;2022-11-14T01:40:24;85.75;;;40.08;;
62990;SDS011;49084;48.204;16.202;2022-11-14T01:53:39;79.80;;;39.88;;
62990;SDS011;49084;48.204;16.202;2022-11-14T01:56:06;82.70;;;38.85;;
62990;SDS011;49084;48.204;16.202;2022-11-14T01:58:35;79.90;;;38.78;;
62990;SDS011;49084;48.204;16.202;2022-11-14T02:01:02;83.03;;;40.30;;
62990;SDS011;49084;48.204;16.202;2022-11-14T02:03:28;78.85;;;39.70;;
62990;SDS011;49084;48.204;16.202;2022-11-14T02:05:55;84.22;;;39.80;;
62990;SDS011;49084;48.204;16.202;2022-11-14T02:08:21;80.30;;;40.05;;
62990;SDS011;49084;48.204;16.202;2022-11-14T02:10:49;79.78;;;40.33;;
62990;SDS011;49084;48.204;16.202;2022-11-14T02:13:14;81.30;;;40.38;;
62990;SDS011;49084;48.204;16.202;2022-11-14T02:15:40;85.38;;;40.30;;
62990;SDS011;49084;48.204;16.202;2022-11-14T02:18:06;83.22;;;41.10;;
62990;SDS011;49084;48.204;16.202;2022-11-14T02:20:35;73.85;;;38.50;;
62990;SDS011;49084;48.204;16.202;2022-11-14T02:23:02;85.97;;;39.85;;
62990;SDS011;49084;48.204;16.202;2022-11-14T02:25:28;78.70;;;38.65;;
62990;SDS011;49084;48.204;16.202;2022-11-14T02:27:54;80.35;;;37.65;;
62990;SDS011;49084;48.204;16.202;2022-11-14T02:30:21;78.60;;;38.30;;
62990;SDS011;49084;48.204;16.202;2022-11-14T02:32:47;84.53;;;39.90;;
62990;SDS011;49084;48.204;16.202;2022-11-14T02:35:13;82.38;;;38.55;;
62990;SDS011;49084;48.204;16.202;2022-11-14T02:37:39;85.30;;;39.55;;
62990;SDS011;49084;48.204;16.202;2022-11-14T02:40:04;78.45;;;39.88;;
62990;SDS011;49084;48.204;16.202;2022-11-14T02:42:31;76.97;;;38.33;;
62990;SDS011;49084;48.204;16.202;2022-11-14T02:44:57;77.18;;;40.10;;
62990;SDS011;49084;48.204;16.202;2022-11-14T02:47:22;78.78;;;40.05;;
62990;SDS011;49084;48.204;16.202;2022-11-14T02:49:51;82.47;;;39.42;;
62990;SDS011;49084;48.204;16.202;2022-11-14T02:52:17;76.07;;;39.15;;
62990;SDS011;49084;48.204;16.202;2022-11-14T02:54:43;79.60;;;37.53;;
62990;SDS011;49084;48.204;16.202;2022-11-14T02:57:08;76.45;;;39.50;;
62990;SDS011;49084;48.204;16.202;2022-11-14T02:59:34;83.43;;;40.80;;
62990;SDS011;49084;48.204;16.202;2022-11-14T03:02:00;83.40;;;39.40;;
62990;SDS011;49084;48.204;16.202;2022-11-14T03:04:25;78.45;;;38.80;;
62990;SDS011;49084;48.204;16.202;2022-11-14T03:06:51;86.63;;;40.65;;
62990;SDS011;49084;48.204;16.202;2022-11-14T03:09:17;91.35;;;41.83;;
62990;SDS011;49084;48.204;16.202;2022-11-14T03:11:42;86.20;;;40.53;;
62990;SDS011;49084;48.204;16.202;2022-11-14T03:14:08;99.85;;;44.35;;
62990;SDS011;49084;48.204;16.202;2022-11-14T03:16:34;85.47;;;40.67;;
62990;SDS011;49084;48.204;16.202;2022-11-14T03:18:59;88.78;;;41.95;;
62990;SDS011;49084;48.204;16.202;2022-11-14T03:21:26;89.10;;;40.47;;
62990;SDS011;49084;48.204;16.202;2022-11-14T03:23:52;79.50;;;41.20;;
62990;SDS011;49084;48.204;16.202;2022-11-14T03:26:17;84.20;;;40.17;;
62990;SDS011;49084;48.204;16.202;2022-11-14T03:28:43;84.80;;;40.22;;
62990;SDS011;49084;48.204;16.202;2022-11-14T03:31:10;81.22;;;40.28;;
62990;SDS011;49084;48.204;16.202;2022-11-14T03:33:37;85.68;;;38.75;;
62990;SDS011;49084;48.204;16.202;2022-11-14T03:36:03;85.72;;;40.00;;
62990;SDS011;49084;48.204;16.202;2022-11-14T03:38:29;81.45;;;40.22;;
62990;SDS011;49084;48.204;16.202;2022-11-14T03:40:56;83.85;;;41.15;;
62990;SDS011;49084;48.204;16.202;2022-11-14T03:43:23;84.07;;;40.35;;
62990;SDS011;49084;48.204;16.202;2022-11-14T03:45:49;86.68;;;41.58;;
62990;SDS011;49084;48.204;16.202;2022-11-14T03:48:15;84.03;;;40.60;;
62990;SDS011;49084;48.204;16.202;2022-11-14T03:50:41;82.03;;;41.33;;
62990;SDS011;49084;48.204;16.202;2022-11-14T03:53:07;88.82;;;40.78;;
62990;SDS011;49084;48.204;16.202;2022-11-14T03:55:33;88.05;;;42.35;;
62990;SDS011;49084;48.204;16.202;2022-11-14T03:57:59;88.78;;;41.67;;
62990;SDS011;49084;48.204;16.202;2022-11-14T04:00:25;83.80;;;39.13;;
62990;SDS011;49084;48.204;16.202;2022-11-14T04:02:53;83.30;;;40.20;;
62990;SDS011;49084;48.204;16.202;2022-11-14T04:05:19;92.88;;;42.70;;
62990;SDS011;49084;48.204;16.202;2022-11-14T04:07:45;86.40;;;41.95;;
62990;SDS011;49084;48.204;16.202;2022-11-14T04:10:11;86.32;;;40.25;;
62990;SDS011;49084;48.204;16.202;2022-11-14T04:12:37;82.00;;;41.97;;
62990;SDS011;49084;48.204;16.202;2022-11-14T04:15:03;84.35;;;40.55;;
62990;SDS011;49084;48.204;16.202;2022-11-14T04:17:28;79.93;;;38.65;;
62990;SDS011;49084;48.204;16.202;2022-11-14T04:19:54;85.95;;;40.00;;
62990;SDS011;49084;48.204;16.202;2022-11-14T04:22:20;88.78;;;40.58;;
62990;SDS011;49084;48.204;16.202;2022-11-14T04:24:46;88.68;;;41.28;;
62990;SDS011;49084;48.204;16.202;2022-11-14T04:27:11;87.13;;;40.83;;
62990;SDS011;49084;48.204;16.202;2022-11-14T04:29:37;88.35;;;39.97;;
62990;SDS011;49084;48.204;16.202;2022-11-14T04:32:02;89.40;;;41.72;;
62990;SDS011;49084;48.204;16.202;2022-11-14T04:34:28;88.43;;;40.63;;
62990;SDS011;49084;48.204;16.202;2022-11-14T04:36:54;84.63;;;42.08;;
62990;SDS011;49084;48.204;16.202;2022-11-14T04:39:19;88.70;;;41.10;;
62990;SDS011;49084;48.204;16.202;2022-11-14T04:41:45;86.25;;;41.10;;
62990;SDS011;49084;48.204;16.202;2022-11-14T04:44:11;83.88;;;40.35;;
62990;SDS011;49084;48.204;16.202;2022-11-14T04:46:36;86.32;;;39.53;;
62990;SDS011;49084;48.204;16.202;2022-11-14T04:49:02;92.30;;;41.50;;
62990;SDS011;49084;48.204;16.202;2022-11-14T04:51:28;81.07;;;39.63;;
62990;SDS011;49084;48.204;16.202;2022-11-14T04:53:53;84.20;;;40.97;;
62990;SDS011;49084;48.204;16.202;2022-11-14T04:56:19;83.82;;;40.17;;
62990;SDS011;49084;48.204;16.202;2022-11-14T04:58:47;85.68;;;39.92;;
62990;SDS011;49084;48.204;16.202;2022-11-14T05:01:14;83.18;;;39.92;;
62990;SDS011;49084;48.204;16.202;2022-11-14T05:03:39;85.15;;;40.75;;
62990;SDS011;49084;48.204;16.202;2022-11-14T05:06:05;87.35;;;40.47;;
62990;SDS011;49084;48.204;16.202;2022-11-14T05:08:31;81.60;;;39.63;;
62990;SDS011;49084;48.204;16.202;2022-11-14T05:10:57;81.35;;;38.08;;
62990;SDS011;49084;48.204;16.202;2022-11-14T05:13:23;79.45;;;37.83;;
62990;SDS011;49084;48.204;16.202;2022-11-14T05:15:49;83.55;;;38.95;;
62990;SDS011;49084;48.204;16.202;2022-11-14T05:18:14;85.72;;;41.30;;
62990;SDS011;49084;48.204;16.202;2022-11-14T05:20:40;84.55;;;39.53;;
62990;SDS011;49084;48.204;16.202;2022-11-14T05:23:05;93.10;;;42.45;;
62990;SDS011;49084;48.204;16.202;2022-11-14T05:25:31;91.40;;;40.30;;
62990;SDS011;49084;48.204;16.202;2022-11-14T05:27:57;87.97;;;39.78;;
62990;SDS011;49084;48.204;16.202;2022-11-14T05:30:22;89.63;;;39.28;;
62990;SDS011;49084;48.204;16.202;2022-11-14T05:32:49;81.68;;;37.83;;
62990;SDS011;49084;48.204;16.202;2022-11-14T05:38:42;85.18;;;38.72;;
62990;SDS011;49084;48.204;16.202;2022-11-14T05:41:17;85.65;;;38.08;;
62990;SDS011;49084;48.204;16.202;2022-11-14T05:43:46;82.90;;;38.15;;
62990;SDS011;49084;48.204;16.202;2022-11-14T05:46:13;87.50;;;39.28;;
62990;SDS011;49084;48.204;16.202;2022-11-14T05:48:40;88.00;;;40.67;;
62990;SDS011;49084;48.204;16.202;2022-11-14T05:51:07;87.88;;;39.53;;
62990;SDS011;49084;48.204;16.202;2022-11-14T05:53:35;97.55;;;40.50;;
62990;SDS011;49084;48.204;16.202;2022-11-14T05:56:04;83.47;;;38.53;;
62990;SDS011;49084;48.204;16.202;2022-11-14T05:58:33;97.80;;;39.80;;
62990;SDS011;49084;48.204;16.202;2022-11-14T06:03:34;84.32;;;38.38;;
62990;SDS011;49084;48.204;16.202;2022-11-14T06:06:02;94.63;;;39.22;;
62990;SDS011;49084;48.204;16.202;2022-11-14T06:08:29;92.22;;;37.80;;
62990;SDS011;49084;48.204;16.202;2022-11-14T06:10:55;80.07;;;35.30;;
62990;SDS011;49084;48.204;16.202;2022-11-14T06:13:26;82.00;;;38.90;;
62990;SDS011;49084;48.204;16.202;2022-11-14T06:15:52;94.43;;;40.53;;
62990;SDS011;49084;48.204;16.202;2022-11-14T06:18:21;91.05;;;37.15;;
62990;SDS011;49084;48.204;16.202;2022-11-14T06:20:47;91.85;;;38.20;;
62990;SDS011;49084;48.204;16.202;2022-11-14T06:23:13;97.72;;;39.55;;
62990;SDS011;49084;48.204;16.202;2022-11-14T06:25:38;94.65;;;39.00;;
62990;SDS011;49084;48.204;16.202;2022-11-14T06:28:04;99.95;;;41.45;;
62990;SDS011;49084;48.204;16.202;2022-11-14T06:30:29;91.40;;;40.75;;
62990;SDS011;49084;48.204;16.202;2022-11-14T06:32:56;96.60;;;40.67;;
62990;SDS011;49084;48.204;16.202;2022-11-14T06:35:23;91.80;;;40.03;;
62990;SDS011;49084;48.204;16.202;2022-11-14T06:37:49;102.25;;;42.17;;
62990;SDS011;49084;48.204;16.202;2022-11-14T06:40:14;97.05;;;39.90;;
62990;SDS011;49084;48.204;16.202;2022-11-14T06:42:40;96.40;;;39.65;;
62990;SDS011;49084;48.204;16.202;2022-11-14T06:45:06;85.88;;;39.40;;
62990;SDS011;49084;48.204;16.202;2022-11-14T06:47:32;91.57;;;39.05;;
62990;SDS011;49084;48.204;16.202;2022-11-14T06:49:57;90.78;;;39.63;;
62990;SDS011;49084;48.204;16.202;2022-11-14T06:52:23;85.97;;;38.13;;
62990;SDS011;49084;48.204;16.202;2022-11-14T06:54:50;92.95;;;39.88;;
62990;SDS011;49084;48.204;16.202;2022-11-14T06:57:16;94.53;;;40.80;;
62990;SDS011;49084;48.204;16.202;2022-11-14T06:59:41;89.53;;;39.78;;
62990;SDS011;49084;48.204;16.202;2022-11-14T07:02:11;92.90;;;40.58;;
62990;SDS011;49084;48.204;16.202;2022-11-14T07:04:37;94.05;;;41.47;;
62990;SDS011;49084;48.204;16.202;2022-11-14T07:07:02;84.45;;;38.17;;
62990;SDS011;49084;48.204;16.202;2022-11-14T07:09:28;93.25;;;39.95;;
62990;SDS011;49084;48.204;16.202;2022-11-14T07:11:53;88.22;;;39.88;;
62990;SDS011;49084;48.204;16.202;2022-11-14T07:14:19;80.68;;;37.42;;
62990;SDS011;49084;48.204;16.202;2022-11-14T07:16:45;89.10;;;39.67;;
62990;SDS011;49084;48.204;16.202;2022-11-14T07:19:11;85.63;;;39.17;;
62990;SDS011;49084;48.204;16.202;2022-11-14T07:21:37;91.43;;;40.22;;
62990;SDS011;49084;48.204;16.202;2022-11-14T07:24:02;85.13;;;37.88;;
62990;SDS011;49084;48.204;16.202;2022-11-14T07:26:28;85.22;;;38.38;;
62990;SDS011;49084;48.204;16.202;2022-11-14T07:28:54;84.55;;;37.90;;
62990;SDS011;49084;48.204;16.202;2022-11-14T07:31:20;85.15;;;37.80;;
62990;SDS011;49084;48.204;16.202;2022-11-14T07:33:46;85.53;;;37.83;;
62990;SDS011;49084;48.204;16.202;2022-11-14T07:36:12;80.45;;;36.97;;
62990;SDS011;49084;48.204;16.202;2022-11-14T07:38:38;77.30;;;36.58;;
62990;SDS011;49084;48.204;16.202;2022-11-14T07:41:05;77.35;;;36.88;;
62990;SDS011;49084;48.204;16.202;2022-11-14T07:45:59;79.63;;;35.92;;
62990;SDS011;49084;48.204;16.202;2022-11-14T07:48:33;71.97;;;35.65;;
62990;SDS011;49084;48.204;16.202;2022-11-14T07:51:02;73.32;;;34.65;;
62990;SDS011;49084;48.204;16.202;2022-11-14T07:53:30;80.18;;;36.45;;
62990;SDS011;49084;48.204;16.202;2022-11-14T07:55:56;78.57;;;36.15;;
62990;SDS011;49084;48.204;16.202;2022-11-14T07:58:27;74.78;;;36.88;;
62990;SDS011;49084;48.204;16.202;2022-11-14T08:00:53;77.53;;;35.80;;
62990;SDS011;49084;48.204;16.202;2022-11-14T08:03:18;83.15;;;40.20;;
62990;SDS011;49084;48.204;16.202;2022-11-14T08:05:44;94.97;;;41.17;;
62990;SDS011;49084;48.204;16.202;2022-11-14T08:08:10;88.18;;;39.92;;
62990;SDS011;49084;48.204;16.202;2022-11-14T08:10:35;82.20;;;40.78;;
62990;SDS011;49084;48.204;16.202;2022-11-14T08:13:02;88.07;;;41.67;;
62990;SDS011;49084;48.204;16.202;2022-11-14T08:15:29;85.80;;;40.40;;
62990;SDS011;49084;48.204;16.202;2022-11-14T08:17:59;85.45;;;40.67;;
62990;SDS011;49084;48.204;16.202;2022-11-14T08:20:26;90.63;;;42.13;;
62990;SDS011;49084;48.204;16.202;2022-11-14T08:22:52;83.47;;;40.75;;
62990;SDS011;49084;48.204;16.202;2022-11-14T08:25:27;82.53;;;39.17;;
62990;SDS011;49084;48.204;16.202;2022-11-14T08:27:53;86.65;;;39.53;;
62990;SDS011;49084;48.204;16.202;2022-11-14T08:30:19;85.38;;;41.30;;
62990;SDS011;49084;48.204;16.202;2022-11-14T08:32:46;83.43;;;40.28;;
62990;SDS011;49084;48.204;16.202;2022-11-14T08:35:11;76.18;;;39.13;;
62990;SDS011;49084;48.204;16.202;2022-11-14T08:37:37;78.35;;;38.72;;
62990;SDS011;49084;48.204;16.202;2022-11-14T08:40:03;77.68;;;38.95;;
62990;SDS011;49084;48.204;16.202;2022-11-14T08:42:28;75.80;;;36.80;;
62990;SDS011;49084;48.204;16.202;2022-11-14T08:44:54;72.43;;;37.05;;
62990;SDS011;49084;48.204;16.202;2022-11-14T08:47:20;68.45;;;36.75;;
62990;SDS011;49084;48.204;16.202;2022-11-14T08:49:45;70.85;;;35.85;;
62990;SDS011;49084;48.204;16.202;2022-11-14T08:52:11;67.15;;;35.97;;
62990;SDS011;49084;48.204;16.202;2022-11-14T08:54:37;66.28;;;35.88;;
62990;SDS011;49084;48.204;16.202;2022-11-14T08:57:03;73.85;;;37.28;;
62990;SDS011;49084;48.204;16.202;2022-11-14T08:59:29;69.47;;;36.50;;
62990;SDS011;49084;48.204;16.202;2022-11-14T09:01:55;71.07;;;37.30;;
62990;SDS011;49084;48.204;16.202;2022-11-14T09:04:21;68.13;;;37.40;;
62990;SDS011;49084;48.204;16.202;2022-11-14T09:06:46;70.63;;;37.72;;
62990;SDS011;49084;48.204;16.202;2022-11-14T09:09:12;71.97;;;37.40;;
62990;SDS011;49084;48.204;16.202;2022-11-14T09:11:38;73.90;;;38.88;;
62990;SDS011;49084;48.204;16.202;2022-11-14T09:14:04;74.55;;;38.17;;
62990;SDS011;49084;48.204;16.202;2022-11-14T09:16:30;66.72;;;36.35;;
62990;SDS011;49084;48.204;16.202;2022-11-14T09:18:55;69.05;;;37.40;;
62990;SDS011;49084;48.204;16.202;2022-11-14T09:21:21;68.18;;;36.40;;
62990;SDS011;49084;48.204;16.202;2022-11-14T09:23:47;68.70;;;35.90;;
62990;SDS011;49084;48.204;16.202;2022-11-14T09:26:13;61.20;;;34.88;;
62990;SDS011;49084;48.204;16.202;2022-11-14T09:28:38;64.90;;;35.60;;
62990;SDS011;49084;48.204;16.202;2022-11-14T09:31:05;64.38;;;34.60;;
62990;SDS011;49084;48.204;16.202;2022-11-14T09:33:32;62.90;;;34.22;;
62990;SDS011;49084;48.204;16.202;2022-11-14T09:35:59;57.13;;;33.22;;
62990;SDS011;49084;48.204;16.202;2022-11-14T09:38:27;59.20;;;34.03;;
62990;SDS011;49084;48.204;16.202;2022-11-14T09:40:59;55.65;;;33.03;;
62990;SDS011;49084;48.204;16.202;2022-11-14T09:46:23;51.60;;;30.65;;
62990;SDS011;49084;48.204;16.202;2022-11-14T09:56:31;42.83;;;28.33;;
62990;SDS011;49084;48.204;16.202;2022-11-14T09:58:58;42.70;;;27.95;;
62990;SDS011;49084;48.204;16.202;2022-11-14T10:15:03;31.80;;;23.00;;
62990;SDS011;49084;48.204;16.202;2022-11-14T10:17:51;32.47;;;22.45;;
62990;SDS011;49084;48.204;16.202;2022-11-14T10:33:32;26.70;;;20.15;;
62990;SDS011;49084;48.204;16.202;2022-11-14T10:38:52;26.25;;;18.17;;
62990;SDS011;49084;48.204;16.202;2022-11-14T10:41:24;24.42;;;17.35;;
62990;SDS011;49084;48.204;16.202;2022-11-14T10:43:52;29.05;;;18.98;;
62990;SDS011;49084;48.204;16.202;2022-11-14T10:46:24;25.25;;;17.60;;
62990;SDS011;49084;48.204;16.202;2022-11-14T10:48:54;26.83;;;18.95;;
62990;SDS011;49084;48.204;16.202;2022-11-14T10:54:04;24.50;;;17.77;;
62990;SDS011;49084;48.204;16.202;2022-11-14T10:56:34;23.30;;;16.77;;
62990;SDS011;49084;48.204;16.202;2022-11-14T10:59:10;25.58;;;17.10;;
62990;SDS011;49084;48.204;16.202;2022-11-14T11:01:37;22.75;;;17.75;;
62990;SDS011;49084;48.204;16.202;2022-11-14T11:06:37;24.50;;;19.20;;
62990;SDS011;49084;48.204;16.202;2022-11-14T11:09:07;24.02;;;18.50;;
62990;SDS011;49084;48.204;16.202;2022-11-14T11:12:13;25.63;;;18.55;;
62990;SDS011;49084;48.204;16.202;2022-11-14T11:14:42;26.90;;;19.50;;
62990;SDS011;49084;48.204;16.202;2022-11-14T11:17:19;24.60;;;19.73;;
62990;SDS011;49084;48.204;16.202;2022-11-14T11:19:47;25.92;;;19.42;;
62990;SDS011;49084;48.204;16.202;2022-11-14T11:22:24;25.75;;;18.80;;
62990;SDS011;49084;48.204;16.202;2022-11-14T11:24:54;24.27;;;18.95;;
62990;SDS011;49084;48.204;16.202;2022-11-14T11:27:22;24.38;;;18.30;;
62990;SDS011;49084;48.204;16.202;2022-11-14T11:30:00;25.58;;;18.58;;
62990;SDS011;49084;48.204;16.202;2022-11-14T11:32:32;21.20;;;17.63;;
62990;SDS011;49084;48.204;16.202;2022-11-14T11:34:59;23.08;;;16.77;;
62990;SDS011;49084;48.204;16.202;2022-11-14T11:40:23;20.25;;;15.98;;
62990;SDS011;49084;48.204;16.202;2022-11-14T11:42:55;20.80;;;16.30;;
62990;SDS011;49084;48.204;16.202;2022-11-14T11:45:28;21.42;;;15.90;;
62990;SDS011;49084;48.204;16.202;2022-11-14T11:47:57;23.38;;;16.55;;
62990;SDS011;49084;48.204;16.202;2022-11-14T11:50:41;20.92;;;16.10;;
62990;SDS011;49084;48.204;16.202;2022-11-14T11:55:52;19.88;;;15.48;;
62990;SDS011;49084;48.204;16.202;2022-11-14T12:01:24;22.38;;;16.80;;
62990;SDS011;49084;48.204;16.202;2022-11-14T12:03:50;21.90;;;17.33;;
62990;SDS011;49084;48.204;16.202;2022-11-14T12:06:18;21.63;;;16.75;;
62990;SDS011;49084;48.204;16.202;2022-11-14T12:11:39;19.55;;;16.05;;
62990;SDS011;49084;48.204;16.202;2022-11-14T12:22:16;24.15;;;17.60;;
62990;SDS011;49084;48.204;16.202;2022-11-14T12:30:20;24.00;;;18.13;;
62990;SDS011;49084;48.204;16.202;2022-11-14T12:35:31;24.17;;;17.00;;
62990;SDS011;49084;48.204;16.202;2022-11-14T12:38:00;23.10;;;17.83;;
62990;SDS011;49084;48.204;16.202;2022-11-14T12:42:59;25.20;;;18.38;;
62990;SDS011;49084;48.204;16.202;2022-11-14T12:48:14;24.70;;;17.15;;
62990;SDS011;49084;48.204;16.202;2022-11-14T12:50:49;24.33;;;17.88;;
62990;SDS011;49084;48.204;16.202;2022-11-14T13:12:58;25.58;;;17.95;;
62990;SDS011;49084;48.204;16.202;2022-11-14T13:15:51;31.88;;;20.70;;
62990;SDS011;49084;48.204;16.202;2022-11-14T13:19:00;28.33;;;19.05;;
62990;SDS011;49084;48.204;16.202;2022-11-14T13:29:54;29.20;;;18.95;;
62990;SDS011;49084;48.204;16.202;2022-11-14T13:43:33;33.55;;;20.30;;
62990;SDS011;49084;48.204;16.202;2022-11-14T13:51:33;33.83;;;20.58;;
62990;SDS011;49084;48.204;16.202;2022-11-14T13:54:18;35.35;;;24.55;;
62990;SDS011;49084;48.204;16.202;2022-11-14T14:02:19;34.72;;;22.05;;
62990;SDS011;49084;48.204;16.202;2022-11-14T14:10:50;38.15;;;23.30;;
62990;SDS011;49084;48.204;16.202;2022-11-14T14:19:14;41.90;;;24.33;;
62990;SDS011;49084;48.204;16.202;2022-11-14T14:27:38;42.90;;;25.48;;
62990;SDS011;49084;48.204;16.202;2022-11-14T14:30:11;47.55;;;26.23;;
62990;SDS011;49084;48.204;16.202;2022-11-14T14:32:38;48.35;;;25.83;;
62990;SDS011;49084;48.204;16.202;2022-11-14T14:35:23;45.92;;;26.30;;
62990;SDS011;49084;48.204;16.202;2022-11-14T14:37:51;45.63;;;27.00;;
62990;SDS011;49084;48.204;16.202;2022-11-14T14:43:13;44.13;;;27.10;;
62990;SDS011;49084;48.204;16.202;2022-11-14T14:45:52;50.88;;;28.20;;
62990;SDS011;49084;48.204;16.202;2022-11-14T14:48:22;52.45;;;29.48;;
62990;SDS011;49084;48.204;16.202;2022-11-14T14:50:51;59.22;;;29.45;;
62990;SDS011;49084;48.204;16.202;2022-11-14T14:53:26;51.67;;;28.07;;
62990;SDS011;49084;48.204;16.202;2022-11-14T14:56:04;46.40;;;27.47;;
62990;SDS011;49084;48.204;16.202;2022-11-14T14:58:41;48.75;;;28.75;;
62990;SDS011;49084;48.204;16.202;2022-11-14T15:01:14;52.63;;;28.80;;
62990;SDS011;49084;48.204;16.202;2022-11-14T15:03:45;50.92;;;28.75;;
62990;SDS011;49084;48.204;16.202;2022-11-14T15:06:26;53.85;;;29.15;;
62990;SDS011;49084;48.204;16.202;2022-11-14T15:08:56;47.78;;;28.05;;
62990;SDS011;49084;48.204;16.202;2022-11-14T15:11:26;54.72;;;30.52;;
62990;SDS011;49084;48.204;16.202;2022-11-14T15:13:56;56.60;;;30.90;;
62990;SDS011;49084;48.204;16.202;2022-11-14T15:16:23;51.97;;;29.20;;
62990;SDS011;49084;48.204;16.202;2022-11-14T15:18:50;61.78;;;31.58;;
62990;SDS011;49084;48.204;16.202;2022-11-14T15:23:58;55.72;;;30.65;;
62990;SDS011;49084;48.204;16.202;2022-11-14T15:26:27;59.53;;;32.25;;
62990;SDS011;49084;48.204;16.202;2022-11-14T15:29:05;60.88;;;30.85;;
62990;SDS011;49084;48.204;16.202;2022-11-14T15:31:42;55.75;;;30.15;;
62990;SDS011;49084;48.204;16.202;2022-11-14T15:39:35;56.73;;;31.83;;
62990;SDS011;49084;48.204;16.202;2022-11-14T15:44:39;61.40;;;33.78;;
62990;SDS011;49084;48.204;16.202;2022-11-14T15:50:01;60.92;;;32.45;;
62990;SDS011;49084;48.204;16.202;2022-11-14T15:52:34;55.45;;;32.38;;
62990;SDS011;49084;48.204;16.202;2022-11-14T15:55:10;56.58;;;32.70;;
62990;SDS011;49084;48.204;16.202;2022-11-14T15:57:41;56.83;;;31.08;;
62990;SDS011;49084;48.204;16.202;2022-11-14T16:00:10;55.88;;;31.85;;
62990;SDS011;49084;48.204;16.202;2022-11-14T16:02:40;62.30;;;33.25;;
62990;SDS011;49084;48.204;16.202;2022-11-14T16:05:27;60.55;;;32.53;;
62990;SDS011;49084;48.204;16.202;2022-11-14T16:07:54;64.57;;;33.58;;
62990;SDS011;49084;48.204;16.202;2022-11-14T16:10:24;66.47;;;34.55;;
62990;SDS011;49084;48.204;16.202;2022-11-14T16:12:51;63.22;;;33.70;;
62990;SDS011;49084;48.204;16.202;2022-11-14T16:15:18;63.47;;;34.33;;
62990;SDS011;49084;48.204;16.202;2022-11-14T16:17:45;67.07;;;35.38;;
62990;SDS011;49084;48.204;16.202;2022-11-14T16:20:14;63.38;;;33.30;;
62990;SDS011;49084;48.204;16.202;2022-11-14T16:22:44;65.50;;;34.75;;
62990;SDS011;49084;48.204;16.202;2022-11-14T16:25:18;63.10;;;34.85;;
62990;SDS011;49084;48.204;16.202;2022-11-14T16:27:45;64.60;;;33.97;;
62990;SDS011;49084;48.204;16.202;2022-11-14T16:30:11;66.50;;;35.40;;
62990;SDS011;49084;48.204;16.202;2022-11-14T16:32:38;65.85;;;37.03;;
62990;SDS011;49084;48.204;16.202;2022-11-14T16:35:06;68.40;;;37.85;;
62990;SDS011;49084;48.204;16.202;2022-11-14T16:37:36;65.80;;;36.42;;
62990;SDS011;49084;48.204;16.202;2022-11-14T16:40:02;71.18;;;36.75;;
62990;SDS011;49084;48.204;16.202;2022-11-14T16:42:30;67.03;;;36.55;;
62990;SDS011;49084;48.204;16.202;2022-11-14T16:45:11;66.72;;;35.58;;
62990;SDS011;49084;48.204;16.202;2022-11-14T16:47:38;67.75;;;37.00;;
62990;SDS011;49084;48.204;16.202;2022-11-14T16:50:05;68.88;;;36.00;;
62990;SDS011;49084;48.204;16.202;2022-11-14T16:52:31;67.45;;;37.45;;
62990;SDS011;49084;48.204;16.202;2022-11-14T16:54:57;67.53;;;36.60;;
62990;SDS011;49084;48.204;16.202;2022-11-14T16:57:23;72.70;;;36.85;;
62990;SDS011;49084;48.204;16.202;2022-11-14T16:59:49;68.90;;;36.30;;
62990;SDS011;49084;48.204;16.202;2022-11-14T17:02:17;69.30;;;36.05;;
62990;SDS011;49084;48.204;16.202;2022-11-14T17:04:43;69.97;;;35.83;;
62990;SDS011;49084;48.204;16.202;2022-11-14T17:07:09;67.57;;;35.88;;
62990;SDS011;49084;48.204;16.202;2022-11-14T17:09:36;65.78;;;35.08;;
62990;SDS011;49084;48.204;16.202;2022-11-14T17:12:02;66.22;;;34.85;;
62990;SDS011;49084;48.204;16.202;2022-11-14T17:14:28;68.47;;;35.83;;